createdAt,value
2019-04-11T00:01:32.539Z,55.38
2019-04-11T00:03:54.102Z,55.70
2019-04-11T00:06:25.998Z,55.72
2019-04-11T00:08:58.501Z,56.08
2019-04-11T00:11:30.234Z,55.80
2019-04-11T00:14:01.682Z,55.83
2019-04-11T00:16:33.500Z,55.84
2019-04-11T00:19:05.225Z,56.08
2019-04-11T00:21:37.828Z,56.04
2019-04-11T00:24:10.411Z,56.21
2019-04-11T00:26:42.295Z,56.06
2019-04-11T00:29:14.381Z,56.10
2019-04-11T00:31:46.973Z,56.27
2019-04-11T00:34:20.594Z,56.15
2019-04-11T00:36:52.715Z,56.24
2019-04-11T00:39:24.199Z,56.23
2019-04-11T00:41:56.511Z,56.34
2019-04-11T00:44:28.024Z,56.73
2019-04-11T00:47:00.548Z,56.42
2019-04-11T00:49:32.602Z,56.57
2019-04-11T00:52:04.574Z,56.68
2019-04-11T00:54:36.187Z,56.51
2019-04-11T00:57:08.485Z,56.17
2019-04-11T00:59:40.607Z,56.14
2019-04-11T01:02:13.479Z,56.17
2019-04-11T01:04:45.343Z,56.36
2019-04-11T01:07:16.766Z,56.44
2019-04-11T01:09:48.865Z,56.73
2019-04-11T01:12:20.722Z,56.88
2019-04-11T01:14:53.164Z,56.85
2019-04-11T01:17:25.371Z,56.81
2019-04-11T01:19:57.377Z,56.79
2019-04-11T01:22:29.862Z,57.29
2019-04-11T01:25:01.274Z,56.51
2019-04-11T01:27:34.088Z,57.09
2019-04-11T01:30:09.179Z,57.09
2019-04-11T01:32:40.798Z,56.62
2019-04-11T01:35:13.090Z,57.47
2019-04-11T01:37:46.046Z,57.22
2019-04-11T01:40:17.952Z,57.13
2019-04-11T01:42:49.384Z,57.01
2019-04-11T01:45:22.726Z,57.32
2019-04-11T01:48:03.653Z,57.86
2019-04-11T01:50:37.052Z,57.71
2019-04-11T01:53:10.916Z,57.54
2019-04-11T01:55:42.929Z,58.08
2019-04-11T01:58:14.562Z,58.01
2019-04-11T02:01:11.137Z,57.64
2019-04-11T02:03:50.062Z,58.86
2019-04-11T02:06:23.565Z,58.55
2019-04-11T02:08:55.695Z,58.13
2019-04-11T02:11:27.727Z,57.54
2019-04-11T02:14:09.871Z,57.60
2019-04-11T02:16:32.770Z,57.78
2019-04-11T02:19:05.473Z,57.77
2019-04-11T02:21:37.868Z,57.50
2019-04-11T02:24:17.968Z,58.14
2019-04-11T02:27:01.062Z,58.00
2019-04-11T02:29:33.270Z,58.38
2019-04-11T02:32:05.586Z,58.07
2019-04-11T02:34:39.572Z,58.50
2019-04-11T02:37:10.976Z,57.95
2019-04-11T02:39:43.251Z,57.89
2019-04-11T02:42:14.989Z,57.70
2019-04-11T02:45:06.302Z,58.05
2019-04-11T02:47:24.209Z,58.13
2019-04-11T02:49:54.959Z,58.34
2019-04-11T02:52:27.762Z,58.58
2019-04-11T02:55:00.775Z,58.95
2019-04-11T02:57:34.169Z,59.09
2019-04-11T03:00:08.386Z,59.05
2019-04-11T03:02:41.643Z,58.51
2019-04-11T03:05:13.812Z,58.53
2019-04-11T03:07:45.887Z,58.71
2019-04-11T03:10:18.730Z,58.44
2019-04-11T03:12:52.532Z,58.10
2019-04-11T03:15:42.069Z,58.56
2019-04-11T03:18:02.208Z,58.10
2019-04-11T03:20:36.855Z,58.62
2019-04-11T03:23:06.226Z,57.48
2019-04-11T03:25:38.558Z,58.34
2019-04-11T03:28:14.898Z,58.30
2019-04-11T03:31:03.903Z,58.68
2019-04-11T03:36:53.280Z,58.49
2019-04-11T03:38:46.591Z,58.57
2019-04-11T03:41:17.375Z,58.03
2019-04-11T03:43:41.873Z,58.28
2019-04-11T03:46:26.087Z,58.24
2019-04-11T03:48:53.386Z,58.95
2019-04-11T03:51:16.744Z,58.94
2019-04-11T03:53:49.105Z,58.04
2019-04-11T03:56:22.020Z,58.18
2019-04-11T03:58:55.206Z,58.83
2019-04-11T04:01:27.506Z,59.49
2019-04-11T04:04:00.603Z,58.70
2019-04-11T04:06:33.050Z,58.99
2019-04-11T04:09:08.929Z,58.88
2019-04-11T04:11:44.853Z,58.81
2019-04-11T04:14:34.535Z,58.72
2019-04-11T04:17:25.431Z,58.79
2019-04-11T04:20:29.032Z,58.56
2019-04-11T04:23:20.826Z,58.85
2019-04-11T04:25:54.315Z,59.88
2019-04-11T04:28:27.266Z,60.35
2019-04-11T04:31:00.258Z,60.40
2019-04-11T04:33:35.097Z,60.87
2019-04-11T04:36:10.382Z,61.27
2019-04-11T04:38:41.431Z,61.44
2019-04-11T04:41:27.924Z,61.46
2019-04-11T04:43:50.472Z,61.20
2019-04-11T04:46:35.082Z,61.15
2019-04-11T04:48:55.997Z,61.70
2019-04-11T04:51:28.879Z,62.14
2019-04-11T04:54:00.613Z,61.85
2019-04-11T04:56:34.773Z,60.78
2019-04-11T04:59:07.119Z,60.78
2019-04-11T05:01:39.372Z,60.91
2019-04-11T05:04:13.508Z,60.93
2019-04-11T05:06:48.227Z,61.54
2019-04-11T05:09:18.008Z,60.88
2019-04-11T05:11:50.787Z,61.37
2019-04-11T05:14:23.330Z,60.14
2019-04-11T05:16:55.414Z,60.14
2019-04-11T05:19:28.532Z,61.53
2019-04-11T05:22:00.052Z,61.31
2019-04-11T05:24:31.557Z,61.51
2019-04-11T05:27:04.157Z,61.41
2019-04-11T05:29:37.543Z,61.83
2019-04-11T05:32:09.427Z,61.58
2019-04-11T05:34:41.419Z,61.82
2019-04-11T05:37:13.258Z,61.67
2019-04-11T05:39:45.010Z,62.61
2019-04-11T05:42:19.386Z,61.95
2019-04-11T05:44:49.980Z,62.13
2019-04-11T05:47:21.760Z,61.11
2019-04-11T05:50:30.385Z,62.45
2019-04-11T05:53:03.886Z,62.03
2019-04-11T05:55:43.131Z,62.12
2019-04-11T05:58:14.354Z,63.17
2019-04-11T06:00:53.274Z,62.35
2019-04-11T06:03:26.063Z,62.29
2019-04-11T06:06:36.413Z,62.53
2019-04-11T06:09:11.769Z,62.67
2019-04-11T06:12:01.104Z,61.66
2019-04-11T06:14:47.202Z,62.13
2019-04-11T06:17:20.069Z,62.15
2019-04-11T06:20:25.740Z,62.19
2019-04-11T06:23:05.015Z,61.37
2019-04-11T06:25:55.669Z,61.40
2019-04-11T06:28:30.741Z,61.62
2019-04-11T06:31:20.777Z,62.28
2019-04-11T06:33:56.786Z,61.02
2019-04-11T06:36:48.181Z,60.85
2019-04-11T06:39:43.217Z,59.68
2019-04-11T06:42:40.000Z,59.89
2019-04-11T06:45:33.528Z,60.02
2019-04-11T06:48:15.749Z,60.54
2019-04-11T06:51:26.026Z,59.20
2019-04-11T06:54:41.111Z,59.22
2019-04-11T06:57:25.731Z,58.40
2019-04-11T06:59:58.744Z,57.67
2019-04-11T07:02:55.089Z,58.21
2019-04-11T07:05:28.858Z,57.98
2019-04-11T07:08:00.292Z,57.52
2019-04-11T07:10:39.493Z,56.19
2019-04-11T07:13:21.019Z,56.28
2019-04-11T07:15:55.000Z,56.50
2019-04-11T07:18:56.987Z,57.20
2019-04-11T07:21:35.321Z,57.00
2019-04-11T07:24:24.703Z,58.02
2019-04-11T07:27:08.101Z,56.14
2019-04-11T07:30:07.742Z,55.59
2019-04-11T07:32:39.046Z,56.73
2019-04-11T07:35:27.849Z,54.39
2019-04-11T07:38:01.081Z,55.06
2019-04-11T07:40:58.915Z,54.46
2019-04-11T07:43:33.522Z,53.85
2019-04-11T07:46:25.087Z,53.80
2019-04-11T07:49:03.962Z,53.75
2019-04-11T07:51:38.519Z,55.13
2019-04-11T07:54:13.827Z,54.87
2019-04-11T07:56:58.674Z,54.79
2019-04-11T07:59:48.992Z,54.88
2019-04-11T08:02:38.038Z,54.87
2019-04-11T08:05:28.085Z,54.32
2019-04-11T08:08:30.430Z,54.37
2019-04-11T08:11:21.212Z,53.76
2019-04-11T08:14:14.568Z,55.77
2019-04-11T08:17:11.495Z,54.24
2019-04-11T08:20:02.918Z,53.67
2019-04-11T08:22:45.658Z,52.99
2019-04-11T08:25:35.510Z,54.62
2019-04-11T08:28:09.984Z,53.93
2019-04-11T08:31:01.354Z,54.09
2019-04-11T08:33:35.002Z,54.11
2019-04-11T08:36:38.021Z,53.46
2019-04-11T08:39:17.185Z,53.43
2019-04-11T08:42:19.909Z,54.07
2019-04-11T08:44:52.222Z,53.79
2019-04-11T08:47:24.498Z,53.21
2019-04-11T08:49:58.426Z,54.49
2019-04-11T08:52:42.362Z,53.68
2019-04-11T08:55:19.002Z,52.09
2019-04-11T08:57:54.402Z,51.74
2019-04-11T09:00:56.165Z,52.33
2019-04-11T09:03:31.905Z,51.93
2019-04-11T09:06:08.575Z,53.56
2019-04-11T09:08:59.850Z,51.60
2019-04-11T09:11:36.602Z,52.43
2019-04-11T09:14:38.635Z,52.67
2019-04-11T09:17:19.534Z,52.79
2019-04-11T09:20:16.942Z,51.64
2019-04-11T09:22:55.389Z,52.50
2019-04-11T09:25:45.421Z,50.97
2019-04-11T09:28:33.451Z,50.02
2019-04-11T09:31:42.549Z,50.12
2019-04-11T09:34:31.015Z,49.58
2019-04-11T09:37:06.458Z,49.49
2019-04-11T09:40:03.720Z,50.05
2019-04-11T09:42:57.593Z,50.29
2019-04-11T09:45:52.190Z,50.91
2019-04-11T09:48:31.587Z,51.62
2019-04-11T09:51:21.608Z,52.20
2019-04-11T09:53:57.297Z,47.78
2019-04-11T09:56:50.143Z,47.62
2019-04-11T09:59:27.186Z,47.96
2019-04-11T10:02:20.980Z,48.67
2019-04-11T10:04:52.297Z,48.22
2019-04-11T10:07:44.038Z,47.11
2019-04-11T10:10:46.379Z,46.57
2019-04-11T10:13:24.947Z,46.23
2019-04-11T10:16:11.529Z,47.10
2019-04-11T10:18:51.610Z,46.17
2019-04-11T10:21:24.385Z,45.01
2019-04-11T10:24:20.632Z,44.70
2019-04-11T10:27:00.504Z,44.24
2019-04-11T10:29:50.415Z,46.57
2019-04-11T10:32:25.377Z,45.43
2019-04-11T10:35:17.542Z,44.11
2019-04-11T10:37:47.794Z,43.01
2019-04-11T10:40:50.353Z,42.93
2019-04-11T10:43:22.456Z,43.59
2019-04-11T10:46:00.809Z,43.03
2019-04-11T10:48:45.247Z,41.81
2019-04-11T10:51:42.314Z,42.39
2019-04-11T10:54:15.482Z,40.53
2019-04-11T10:57:10.052Z,40.67
2019-04-11T10:59:41.250Z,41.41
2019-04-11T11:02:25.206Z,40.28
2019-04-11T11:04:57.338Z,42.26
2019-04-11T11:07:31.006Z,42.67
2019-04-11T11:10:04.925Z,45.62
2019-04-11T11:12:57.329Z,43.22
2019-04-11T11:15:35.712Z,42.80
2019-04-11T11:18:53.059Z,42.42
2019-04-11T11:21:06.897Z,43.23
2019-04-11T11:24:00.914Z,42.26
2019-04-11T11:26:38.887Z,43.25
2019-04-11T11:29:42.952Z,43.98
2019-04-11T11:32:39.638Z,44.51
2019-04-11T11:35:32.888Z,44.94
2019-04-11T11:38:16.039Z,45.12
2019-04-11T11:41:05.887Z,44.97
2019-04-11T11:43:37.222Z,44.68
2019-04-11T11:46:29.714Z,45.79
2019-04-11T11:49:44.939Z,45.29
2019-04-11T11:52:24.841Z,46.60
2019-04-11T11:54:56.781Z,45.80
2019-04-11T11:57:33.310Z,45.19
2019-04-11T12:00:17.744Z,45.23
2019-04-11T12:03:08.657Z,46.23
2019-04-11T12:05:50.459Z,45.41
2019-04-11T12:08:45.351Z,46.97
2019-04-11T12:11:15.708Z,45.38
2019-04-11T12:14:04.656Z,45.02
2019-04-11T12:17:00.361Z,45.93
2019-04-11T12:19:51.088Z,45.80
2019-04-11T12:22:16.059Z,46.50
2019-04-11T12:24:54.419Z,46.29
2019-04-11T12:27:58.308Z,45.48
2019-04-11T12:30:36.992Z,45.56
2019-04-11T12:33:23.588Z,45.31
2019-04-11T12:36:03.274Z,44.12
2019-04-11T12:38:54.880Z,45.71
2019-04-11T12:41:48.084Z,45.46
2019-04-11T12:44:50.648Z,45.54
2019-04-11T12:47:26.819Z,45.67
2019-04-11T12:50:26.311Z,46.70
2019-04-11T12:53:01.584Z,48.55
2019-04-11T12:55:57.602Z,48.46
2019-04-11T12:58:31.824Z,47.92
2019-04-11T13:01:21.950Z,46.73
2019-04-11T13:04:24.305Z,45.48
2019-04-11T13:07:13.096Z,44.32
2019-04-11T13:09:48.807Z,43.65
2019-04-11T13:12:33.658Z,43.21
2019-04-11T13:15:20.750Z,44.05
2019-04-11T13:18:11.014Z,43.47
2019-04-11T13:20:52.533Z,40.35
2019-04-11T13:23:41.835Z,40.83
2019-04-11T13:26:48.615Z,41.05
2019-04-11T13:29:36.857Z,43.16
2019-04-11T13:32:25.548Z,43.88
2019-04-11T13:35:00.455Z,45.83
2019-04-11T13:37:49.403Z,44.12
2019-04-11T13:40:35.798Z,43.56
2019-04-11T13:43:24.610Z,44.48
2019-04-11T13:46:30.258Z,45.43
2019-04-11T13:49:13.813Z,44.87
2019-04-11T13:52:03.061Z,44.63
2019-04-11T13:54:57.513Z,44.43
2019-04-11T13:57:47.951Z,44.20
2019-04-11T14:00:39.686Z,44.56
2019-04-11T14:03:24.403Z,44.01
2019-04-11T14:05:57.433Z,44.15
2019-04-11T14:08:38.450Z,43.41
2019-04-11T14:11:12.435Z,43.38
2019-04-11T14:13:44.376Z,42.64
2019-04-11T14:16:18.287Z,43.29
2019-04-11T14:19:11.696Z,42.70
2019-04-11T14:21:43.685Z,42.79
2019-04-11T14:24:46.037Z,41.32
2019-04-11T14:27:22.910Z,39.17
2019-04-11T14:30:09.963Z,39.12
2019-04-11T14:32:44.652Z,40.60
2019-04-11T14:35:35.298Z,42.38
2019-04-11T14:38:11.985Z,43.25
2019-04-11T14:41:02.551Z,42.99
2019-04-11T14:43:45.872Z,43.30
2019-04-11T14:46:36.775Z,43.79
2019-04-11T14:49:11.174Z,44.37
2019-04-11T14:52:00.478Z,43.16
2019-04-11T14:54:40.662Z,44.11
2019-04-11T14:57:22.745Z,44.39
2019-04-11T15:00:12.066Z,44.73
2019-04-11T15:03:02.404Z,43.27
2019-04-11T15:05:44.588Z,44.95
2019-04-11T15:08:17.729Z,43.56
2019-04-11T15:10:58.793Z,44.01
2019-04-11T15:13:30.648Z,44.28
2019-04-11T15:16:26.522Z,44.45
2019-04-11T15:19:00.989Z,44.29
2019-04-11T15:21:49.754Z,43.82
2019-04-11T15:24:21.707Z,44.05
2019-04-11T15:27:11.856Z,44.98
2019-04-11T15:29:45.895Z,43.71
2019-04-11T15:32:39.681Z,44.52
2019-04-11T15:35:13.186Z,44.57
2019-04-11T15:38:18.665Z,43.30
2019-04-11T15:40:53.502Z,43.88
2019-04-11T15:43:43.649Z,43.52
2019-04-11T15:46:23.261Z,43.79
2019-04-11T15:49:20.977Z,42.73
2019-04-11T15:52:06.931Z,43.54
2019-04-11T15:54:57.784Z,44.89
2019-04-11T15:57:37.834Z,44.29
2019-04-11T16:00:34.947Z,44.76
2019-04-11T16:03:11.180Z,44.74
2019-04-11T16:06:02.152Z,44.59
2019-04-11T16:08:44.769Z,45.05
2019-04-11T16:11:53.621Z,46.39
2019-04-11T16:14:30.434Z,44.58
2019-04-11T16:17:26.763Z,44.97
2019-04-11T16:20:04.381Z,44.77
2019-04-11T16:22:55.321Z,45.08
2019-04-11T16:25:28.978Z,46.15
2019-04-11T16:28:21.783Z,45.41
2019-04-11T16:30:55.345Z,46.11
2019-04-11T16:34:03.797Z,45.08
2019-04-11T16:36:42.090Z,45.75
2019-04-11T16:39:35.577Z,45.65
2019-04-11T16:42:09.791Z,45.07
2019-04-11T16:45:00.349Z,45.23
2019-04-11T16:47:49.564Z,45.39
2019-04-11T16:50:21.056Z,45.68
2019-04-11T16:52:52.641Z,46.84
2019-04-11T16:55:24.157Z,45.34
2019-04-11T16:57:55.852Z,45.84
2019-04-11T17:00:27.411Z,45.47
2019-04-11T17:02:58.943Z,45.65
2019-04-11T17:05:30.629Z,46.12
2019-04-11T17:08:21.106Z,46.93
2019-04-11T17:11:18.902Z,45.81
2019-04-11T17:13:50.594Z,46.10
2019-04-11T17:16:22.664Z,45.96
2019-04-11T17:18:54.260Z,46.38
2019-04-11T17:21:25.718Z,46.65
2019-04-11T17:23:57.261Z,47.96
2019-04-11T17:26:28.815Z,47.54
2019-04-11T17:29:00.525Z,47.75
2019-04-11T17:31:32.050Z,47.55
2019-04-11T17:34:05.590Z,48.00
2019-04-11T17:36:36.801Z,47.96
2019-04-11T17:39:09.004Z,48.40
2019-04-11T17:41:42.048Z,49.51
2019-04-11T17:44:15.157Z,49.20
2019-04-11T17:46:46.983Z,50.38
2019-04-11T17:49:18.505Z,49.97
2019-04-11T17:51:55.737Z,50.17
2019-04-11T17:54:25.013Z,51.31
2019-04-11T17:56:59.051Z,52.00
2019-04-11T17:59:29.941Z,52.43
2019-04-11T18:02:01.528Z,52.85
2019-04-11T18:04:33.239Z,52.96
2019-04-11T18:07:04.778Z,53.22
2019-04-11T18:09:36.306Z,53.18
2019-04-11T18:12:07.797Z,53.24
2019-04-11T18:14:39.443Z,53.35
2019-04-11T18:17:10.995Z,53.24
2019-04-11T18:19:42.583Z,53.90
2019-04-11T18:22:14.379Z,54.60
2019-04-11T18:24:49.835Z,54.52
2019-04-11T18:27:21.901Z,54.53
2019-04-11T18:29:53.647Z,55.46
2019-04-11T18:32:25.321Z,55.76
2019-04-11T18:34:57.037Z,55.67
2019-04-11T18:37:29.781Z,56.06
2019-04-11T18:40:06.306Z,56.27
2019-04-11T18:42:35.349Z,56.49
2019-04-11T18:45:09.130Z,56.82
2019-04-11T18:47:40.681Z,56.58
2019-04-11T18:50:14.320Z,56.11
2019-04-11T18:52:45.914Z,55.77
2019-04-11T18:55:17.825Z,55.44
2019-04-11T18:57:49.750Z,55.09
2019-04-11T19:00:22.957Z,55.16
2019-04-11T19:02:54.915Z,55.18
2019-04-11T19:05:29.049Z,55.49
2019-04-11T19:07:59.898Z,55.56
2019-04-11T19:10:31.628Z,55.91
2019-04-11T19:13:03.216Z,55.88
2019-04-11T19:15:35.862Z,56.55
2019-04-11T19:18:07.432Z,56.73
2019-04-11T19:20:39.082Z,56.18
2019-04-11T19:23:10.534Z,56.12
2019-04-11T19:25:44.460Z,56.21
2019-04-11T19:28:15.606Z,55.76
2019-04-11T19:30:47.642Z,55.73
2019-04-11T19:33:19.283Z,55.74
2019-04-11T19:35:50.679Z,55.75
2019-04-11T19:38:26.822Z,55.31
2019-04-11T19:40:58.456Z,55.40
2019-04-11T19:43:30.133Z,54.77
2019-04-11T19:46:03.091Z,54.58
2019-04-11T19:48:34.687Z,54.55
2019-04-11T19:51:06.981Z,54.27
2019-04-11T19:53:38.467Z,54.35
2019-04-11T19:56:47.087Z,53.69
2019-04-11T19:59:18.733Z,54.42
2019-04-11T20:01:50.842Z,54.04
2019-04-11T20:04:24.678Z,53.82
2019-04-11T20:06:56.648Z,54.12
2019-04-11T20:09:28.109Z,54.03
2019-04-11T20:12:00.733Z,54.26
2019-04-11T20:14:34.931Z,54.63
2019-04-11T20:17:05.734Z,54.80
2019-04-11T20:19:37.286Z,54.77
2019-04-11T20:22:09.386Z,54.06
2019-04-11T20:24:46.000Z,54.02
2019-04-11T20:27:14.667Z,54.22
2019-04-11T20:29:46.159Z,54.23
2019-04-11T20:32:17.919Z,54.88
2019-04-11T20:34:49.675Z,54.22
2019-04-11T20:37:21.144Z,54.03
2019-04-11T20:39:53.837Z,54.30
2019-04-11T20:42:25.700Z,54.05
2019-04-11T20:44:58.481Z,54.21
2019-04-11T20:47:30.628Z,54.53
2019-04-11T20:50:07.268Z,55.02
2019-04-11T20:52:35.823Z,55.09
2019-04-11T20:55:09.223Z,55.47
2019-04-11T20:57:41.226Z,55.40
2019-04-11T21:00:13.181Z,54.86
2019-04-11T21:02:44.972Z,54.79
2019-04-11T21:05:17.335Z,54.87
2019-04-11T21:07:48.957Z,55.24
2019-04-11T21:10:20.646Z,55.28
2019-04-11T21:12:52.514Z,54.96
2019-04-11T21:15:24.224Z,55.24
2019-04-11T21:17:56.673Z,55.29
2019-04-11T21:20:28.202Z,55.58
2019-04-11T21:22:59.713Z,55.73
2019-04-11T21:25:31.284Z,55.09
2019-04-11T21:28:02.735Z,55.13
2019-04-11T21:30:34.190Z,55.09
2019-04-11T21:33:05.781Z,55.66
2019-04-11T21:35:37.588Z,55.43
2019-04-11T21:38:09.418Z,54.57
2019-04-11T21:40:41.046Z,54.75
2019-04-11T21:43:12.537Z,55.07
2019-04-11T21:45:44.414Z,55.26
2019-04-11T21:48:15.978Z,55.27
2019-04-11T21:50:47.702Z,55.12
2019-04-11T21:53:19.220Z,55.11
2019-04-11T21:55:50.757Z,55.32
2019-04-11T21:58:22.264Z,56.08
2019-04-11T22:01:04.420Z,56.19
2019-04-11T22:03:36.160Z,55.94
2019-04-11T22:06:07.688Z,56.00
2019-04-11T22:08:39.148Z,55.94
2019-04-11T22:11:10.830Z,56.40
2019-04-11T22:13:43.568Z,56.80
2019-04-11T22:16:15.104Z,56.89
2019-04-11T22:18:46.697Z,57.18
2019-04-11T22:21:18.170Z,57.10
2019-04-11T22:23:49.584Z,56.97
2019-04-11T22:26:20.956Z,57.01
2019-04-11T22:28:54.886Z,57.69
2019-04-11T22:31:26.253Z,57.90
2019-04-11T22:34:03.278Z,57.71
2019-04-11T22:36:34.618Z,57.97
2019-04-11T22:39:10.601Z,58.12
2019-04-11T22:41:42.529Z,57.85
2019-04-11T22:44:14.012Z,57.74
2019-04-11T22:46:45.429Z,58.12
2019-04-11T22:49:17.232Z,58.32
2019-04-11T22:51:48.846Z,58.50
2019-04-11T22:54:20.287Z,58.44
2019-04-11T22:56:51.751Z,58.68
2019-04-11T22:59:23.912Z,58.80
2019-04-11T23:01:57.001Z,58.86
2019-04-11T23:04:28.652Z,58.73
2019-04-11T23:19:32.935Z,59.63
2019-04-11T23:22:04.442Z,59.69
2019-04-11T23:24:35.689Z,59.36
2019-04-11T23:27:07.292Z,59.59
2019-04-11T23:29:39.195Z,59.74
2019-04-11T23:32:12.016Z,59.72
2019-04-11T23:34:43.509Z,60.25
2019-04-11T23:37:15.493Z,60.05
2019-04-11T23:39:47.043Z,60.11
2019-04-11T23:42:19.733Z,60.48
2019-04-11T23:44:51.772Z,60.26
2019-04-11T23:47:23.895Z,60.17
2019-04-11T23:49:56.161Z,60.59
2019-04-11T23:52:27.764Z,60.24
2019-04-11T23:55:00.507Z,60.60
2019-04-11T23:57:32.768Z,60.73
